sensor_id;sensor_type;location;lat;lon;timestamp;temperature;humidity
76345;DHT22;65160;50.504;3.666;2022-11-22T00:00:56;5.93;92.88
76345;DHT22;65160;50.504;3.666;2022-11-22T00:03:22;5.87;93.09
76345;DHT22;65160;50.504;3.666;2022-11-22T00:05:47;5.80;93.21
76345;DHT22;65160;50.504;3.666;2022-11-22T00:08:13;5.75;93.31
76345;DHT22;65160;50.504;3.666;2022-11-22T00:10:38;5.66;93.40
76345;DHT22;65160;50.504;3.666;2022-11-22T00:13:04;5.65;93.16
76345;DHT22;65160;50.504;3.666;2022-11-22T00:15:29;5.59;93.11
76345;DHT22;65160;50.504;3.666;2022-11-22T00:17:55;5.62;92.89
76345;DHT22;65160;50.504;3.666;2022-11-22T00:20:21;5.59;92.80
76345;DHT22;65160;50.504;3.666;2022-11-22T00:22:47;5.63;92.78
76345;DHT22;65160;50.504;3.666;2022-11-22T00:25:12;5.60;92.75
76345;DHT22;65160;50.504;3.666;2022-11-22T00:27:38;5.56;92.43
76345;DHT22;65160;50.504;3.666;2022-11-22T00:30:04;5.55;92.48
76345;DHT22;65160;50.504;3.666;2022-11-22T00:32:30;5.58;92.20
76345;DHT22;65160;50.504;3.666;2022-11-22T00:34:56;5.56;92.14
76345;DHT22;65160;50.504;3.666;2022-11-22T00:37:21;5.54;91.90
76345;DHT22;65160;50.504;3.666;2022-11-22T00:39:46;5.52;91.93
76345;DHT22;65160;50.504;3.666;2022-11-22T00:42:12;5.54;91.55
76345;DHT22;65160;50.504;3.666;2022-11-22T00:44:37;5.54;91.45
76345;DHT22;65160;50.504;3.666;2022-11-22T00:47:03;5.49;91.59
76345;DHT22;65160;50.504;3.666;2022-11-22T00:49:28;5.47;91.68
76345;DHT22;65160;50.504;3.666;2022-11-22T00:51:54;5.42;91.80
76345;DHT22;65160;50.504;3.666;2022-11-22T00:54:19;5.42;91.55
76345;DHT22;65160;50.504;3.666;2022-11-22T00:56:45;5.42;91.41
76345;DHT22;65160;50.504;3.666;2022-11-22T00:59:10;5.44;91.11
76345;DHT22;65160;50.504;3.666;2022-11-22T01:01:35;5.47;91.14
76345;DHT22;65160;50.504;3.666;2022-11-22T01:04:01;5.39;91.43
76345;DHT22;65160;50.504;3.666;2022-11-22T01:06:26;5.34;91.52
76345;DHT22;65160;50.504;3.666;2022-11-22T01:08:52;5.26;91.96
76345;DHT22;65160;50.504;3.666;2022-11-22T01:11:17;5.31;91.56
76345;DHT22;65160;50.504;3.666;2022-11-22T01:13:43;5.28;91.48
76345;DHT22;65160;50.504;3.666;2022-11-22T01:16:10;5.21;92.11
76345;DHT22;65160;50.504;3.666;2022-11-22T01:18:36;5.18;92.10
76345;DHT22;65160;50.504;3.666;2022-11-22T01:21:02;5.16;91.90
76345;DHT22;65160;50.504;3.666;2022-11-22T01:23:28;5.11;92.09
76345;DHT22;65160;50.504;3.666;2022-11-22T01:25:55;5.14;91.78
76345;DHT22;65160;50.504;3.666;2022-11-22T01:28:21;5.18;91.51
76345;DHT22;65160;50.504;3.666;2022-11-22T01:30:49;5.17;91.67
76345;DHT22;65160;50.504;3.666;2022-11-22T01:33:15;5.14;91.66
76345;DHT22;65160;50.504;3.666;2022-11-22T01:35:41;5.07;92.13
76345;DHT22;65160;50.504;3.666;2022-11-22T01:38:06;5.04;92.26
76345;DHT22;65160;50.504;3.666;2022-11-22T01:40:32;5.07;92.05
76345;DHT22;65160;50.504;3.666;2022-11-22T01:42:58;5.06;92.18
76345;DHT22;65160;50.504;3.666;2022-11-22T01:47:56;4.96;92.48
76345;DHT22;65160;50.504;3.666;2022-11-22T01:50:22;4.91;92.85
76345;DHT22;65160;50.504;3.666;2022-11-22T01:52:47;4.99;92.55
76345;DHT22;65160;50.504;3.666;2022-11-22T01:55:13;4.97;92.52
76345;DHT22;65160;50.504;3.666;2022-11-22T01:57:39;4.96;92.75
76345;DHT22;65160;50.504;3.666;2022-11-22T02:00:08;4.97;92.59
76345;DHT22;65160;50.504;3.666;2022-11-22T02:02:36;4.89;92.69
76345;DHT22;65160;50.504;3.666;2022-11-22T02:05:06;4.91;92.72
76345;DHT22;65160;50.504;3.666;2022-11-22T02:08:07;4.89;92.56
76345;DHT22;65160;50.504;3.666;2022-11-22T02:10:36;4.93;92.51
76345;DHT22;65160;50.504;3.666;2022-11-22T02:13:03;4.82;93.07
76345;DHT22;65160;50.504;3.666;2022-11-22T02:15:29;4.90;92.45
76345;DHT22;65160;50.504;3.666;2022-11-22T02:17:57;4.82;92.91
76345;DHT22;65160;50.504;3.666;2022-11-22T02:20:23;4.77;93.18
76345;DHT22;65160;50.504;3.666;2022-11-22T02:22:52;4.72;93.44
76345;DHT22;65160;50.504;3.666;2022-11-22T02:28:07;4.63;93.62
76345;DHT22;65160;50.504;3.666;2022-11-22T02:30:33;4.66;93.53
76345;DHT22;65160;50.504;3.666;2022-11-22T02:32:59;4.71;93.33
76345;DHT22;65160;50.504;3.666;2022-11-22T02:35:27;4.69;93.25
76345;DHT22;65160;50.504;3.666;2022-11-22T02:38:03;4.66;93.42
76345;DHT22;65160;50.504;3.666;2022-11-22T02:40:45;4.63;93.40
76345;DHT22;65160;50.504;3.666;2022-11-22T02:43:18;4.63;93.42
76345;DHT22;65160;50.504;3.666;2022-11-22T02:45:44;4.63;93.37
76345;DHT22;65160;50.504;3.666;2022-11-22T02:48:12;4.65;93.40
76345;DHT22;65160;50.504;3.666;2022-11-22T02:50:38;4.62;93.30
76345;DHT22;65160;50.504;3.666;2022-11-22T02:53:05;4.66;93.22
76345;DHT22;65160;50.504;3.666;2022-11-22T02:55:30;4.61;93.34
76345;DHT22;65160;50.504;3.666;2022-11-22T02:57:56;4.63;93.23
76345;DHT22;65160;50.504;3.666;2022-11-22T03:00:21;4.59;93.41
76345;DHT22;65160;50.504;3.666;2022-11-22T03:02:47;4.56;93.39
76345;DHT22;65160;50.504;3.666;2022-11-22T03:05:12;4.59;93.27
76345;DHT22;65160;50.504;3.666;2022-11-22T03:07:38;4.68;92.84
76345;DHT22;65160;50.504;3.666;2022-11-22T03:10:03;4.65;93.18
76345;DHT22;65160;50.504;3.666;2022-11-22T03:12:29;4.63;93.13
76345;DHT22;65160;50.504;3.666;2022-11-22T03:14:54;4.65;93.08
76345;DHT22;65160;50.504;3.666;2022-11-22T03:17:20;4.63;93.26
76345;DHT22;65160;50.504;3.666;2022-11-22T03:19:45;4.61;93.25
76345;DHT22;65160;50.504;3.666;2022-11-22T03:22:11;4.59;93.25
76345;DHT22;65160;50.504;3.666;2022-11-22T03:24:37;4.56;93.29
76345;DHT22;65160;50.504;3.666;2022-11-22T03:27:02;4.54;93.46
76345;DHT22;65160;50.504;3.666;2022-11-22T03:29:28;4.52;93.39
76345;DHT22;65160;50.504;3.666;2022-11-22T03:31:53;4.52;93.59
76345;DHT22;65160;50.504;3.666;2022-11-22T03:34:18;4.46;93.48
76345;DHT22;65160;50.504;3.666;2022-11-22T03:36:44;4.45;93.47
76345;DHT22;65160;50.504;3.666;2022-11-22T03:39:09;4.48;93.40
76345;DHT22;65160;50.504;3.666;2022-11-22T03:41:35;4.45;93.53
76345;DHT22;65160;50.504;3.666;2022-11-22T03:44:00;4.54;93.26
76345;DHT22;65160;50.504;3.666;2022-11-22T03:46:26;4.54;93.35
76345;DHT22;65160;50.504;3.666;2022-11-22T03:48:51;4.58;93.15
76345;DHT22;65160;50.504;3.666;2022-11-22T03:51:17;4.55;93.34
76345;DHT22;65160;50.504;3.666;2022-11-22T03:53:42;4.61;93.13
76345;DHT22;65160;50.504;3.666;2022-11-22T03:56:08;4.58;92.97
76345;DHT22;65160;50.504;3.666;2022-11-22T03:58:33;4.58;92.92
76345;DHT22;65160;50.504;3.666;2022-11-22T04:00:59;4.52;93.10
76345;DHT22;65160;50.504;3.666;2022-11-22T04:03:25;4.48;93.24
76345;DHT22;65160;50.504;3.666;2022-11-22T04:05:50;4.45;93.49
76345;DHT22;65160;50.504;3.666;2022-11-22T04:08:16;4.49;93.42
76345;DHT22;65160;50.504;3.666;2022-11-22T04:10:41;4.52;93.61
76345;DHT22;65160;50.504;3.666;2022-11-22T04:13:07;4.48;93.47
76345;DHT22;65160;50.504;3.666;2022-11-22T04:15:33;4.55;93.08
76345;DHT22;65160;50.504;3.666;2022-11-22T04:17:58;4.62;93.16
76345;DHT22;65160;50.504;3.666;2022-11-22T04:20:27;4.68;92.77
76345;DHT22;65160;50.504;3.666;2022-11-22T04:23:12;4.73;92.73
76345;DHT22;65160;50.504;3.666;2022-11-22T04:25:42;4.79;92.37
76345;DHT22;65160;50.504;3.666;2022-11-22T04:28:09;4.80;92.40
76345;DHT22;65160;50.504;3.666;2022-11-22T04:30:35;4.79;92.60
76345;DHT22;65160;50.504;3.666;2022-11-22T04:33:20;4.80;92.63
76345;DHT22;65160;50.504;3.666;2022-11-22T04:35:46;4.76;92.75
76345;DHT22;65160;50.504;3.666;2022-11-22T04:38:11;4.73;92.75
76345;DHT22;65160;50.504;3.666;2022-11-22T04:40:38;4.72;93.01
76345;DHT22;65160;50.504;3.666;2022-11-22T04:43:04;4.69;93.50
76345;DHT22;65160;50.504;3.666;2022-11-22T04:45:49;4.69;93.40
76345;DHT22;65160;50.504;3.666;2022-11-22T04:48:14;4.76;92.93
76345;DHT22;65160;50.504;3.666;2022-11-22T04:50:40;4.82;92.70
76345;DHT22;65160;50.504;3.666;2022-11-22T04:53:25;4.82;92.85
76345;DHT22;65160;50.504;3.666;2022-11-22T04:55:51;4.86;92.59
76345;DHT22;65160;50.504;3.666;2022-11-22T04:58:17;4.90;92.71
76345;DHT22;65160;50.504;3.666;2022-11-22T05:00:42;4.93;92.38
76345;DHT22;65160;50.504;3.666;2022-11-22T05:03:08;4.96;92.44
76345;DHT22;65160;50.504;3.666;2022-11-22T05:05:38;5.01;91.99
76345;DHT22;65160;50.504;3.666;2022-11-22T05:08:04;5.01;92.12
76345;DHT22;65160;50.504;3.666;2022-11-22T05:10:30;5.03;92.37
76345;DHT22;65160;50.504;3.666;2022-11-22T05:13:15;5.09;91.77
76345;DHT22;65160;50.504;3.666;2022-11-22T05:15:40;5.14;91.95
76345;DHT22;65160;50.504;3.666;2022-11-22T05:18:05;5.11;91.81
76345;DHT22;65160;50.504;3.666;2022-11-22T05:20:31;5.09;92.38
76345;DHT22;65160;50.504;3.666;2022-11-22T05:22:56;5.10;91.87
76345;DHT22;65160;50.504;3.666;2022-11-22T05:25:40;5.17;91.54
76345;DHT22;65160;50.504;3.666;2022-11-22T05:28:06;5.23;91.73
76345;DHT22;65160;50.504;3.666;2022-11-22T05:30:31;5.20;91.65
76345;DHT22;65160;50.504;3.666;2022-11-22T05:32:57;5.20;92.05
76345;DHT22;65160;50.504;3.666;2022-11-22T05:35:22;5.23;91.99
76345;DHT22;65160;50.504;3.666;2022-11-22T05:37:47;5.23;92.35
76345;DHT22;65160;50.504;3.666;2022-11-22T05:40:13;5.24;92.03
76345;DHT22;65160;50.504;3.666;2022-11-22T05:42:38;5.24;91.73
76345;DHT22;65160;50.504;3.666;2022-11-22T05:45:04;5.26;91.85
76345;DHT22;65160;50.504;3.666;2022-11-22T05:47:33;5.24;92.10
76345;DHT22;65160;50.504;3.666;2022-11-22T05:49:59;5.26;91.93
76345;DHT22;65160;50.504;3.666;2022-11-22T05:52:24;5.26;92.19
76345;DHT22;65160;50.504;3.666;2022-11-22T05:54:50;5.24;91.90
76345;DHT22;65160;50.504;3.666;2022-11-22T05:57:15;5.27;92.04
76345;DHT22;65160;50.504;3.666;2022-11-22T05:59:40;5.26;92.04
76345;DHT22;65160;50.504;3.666;2022-11-22T06:02:06;5.26;91.85
76345;DHT22;65160;50.504;3.666;2022-11-22T06:04:31;5.27;92.09
76345;DHT22;65160;50.504;3.666;2022-11-22T06:06:57;5.32;92.47
76345;DHT22;65160;50.504;3.666;2022-11-22T06:09:22;5.35;92.00
76345;DHT22;65160;50.504;3.666;2022-11-22T06:11:48;5.39;91.73
76345;DHT22;65160;50.504;3.666;2022-11-22T06:14:13;5.39;91.72
76345;DHT22;65160;50.504;3.666;2022-11-22T06:16:38;5.39;91.79
76345;DHT22;65160;50.504;3.666;2022-11-22T06:19:04;5.44;91.89
76345;DHT22;65160;50.504;3.666;2022-11-22T06:21:29;5.42;91.78
76345;DHT22;65160;50.504;3.666;2022-11-22T06:23:54;5.44;91.84
76345;DHT22;65160;50.504;3.666;2022-11-22T06:26:21;5.42;91.80
76345;DHT22;65160;50.504;3.666;2022-11-22T06:28:48;5.47;91.91
76345;DHT22;65160;50.504;3.666;2022-11-22T06:31:22;5.48;91.57
76345;DHT22;65160;50.504;3.666;2022-11-22T06:33:48;5.48;91.40
76345;DHT22;65160;50.504;3.666;2022-11-22T06:36:22;5.48;91.49
76345;DHT22;65160;50.504;3.666;2022-11-22T06:38:48;5.49;91.51
76345;DHT22;65160;50.504;3.666;2022-11-22T06:41:19;5.51;92.00
76345;DHT22;65160;50.504;3.666;2022-11-22T06:43:46;5.49;91.72
76345;DHT22;65160;50.504;3.666;2022-11-22T06:46:11;5.54;91.64
76345;DHT22;65160;50.504;3.666;2022-11-22T06:48:39;5.54;91.74
76345;DHT22;65160;50.504;3.666;2022-11-22T06:51:15;5.58;91.61
76345;DHT22;65160;50.504;3.666;2022-11-22T06:53:41;5.58;91.21
76345;DHT22;65160;50.504;3.666;2022-11-22T06:58:43;5.59;91.52
76345;DHT22;65160;50.504;3.666;2022-11-22T07:01:14;5.63;91.34
76345;DHT22;65160;50.504;3.666;2022-11-22T07:03:40;5.65;91.38
76345;DHT22;65160;50.504;3.666;2022-11-22T07:06:06;5.67;91.05
76345;DHT22;65160;50.504;3.666;2022-11-22T07:08:33;5.72;91.30
76345;DHT22;65160;50.504;3.666;2022-11-22T07:11:07;5.69;91.71
76345;DHT22;65160;50.504;3.666;2022-11-22T07:13:34;5.72;91.49
76345;DHT22;65160;50.504;3.666;2022-11-22T07:16:01;5.72;91.03
76345;DHT22;65160;50.504;3.666;2022-11-22T07:18:27;5.77;91.06
76345;DHT22;65160;50.504;3.666;2022-11-22T07:20:59;5.76;91.13
76345;DHT22;65160;50.504;3.666;2022-11-22T07:23:25;5.83;91.01
76345;DHT22;65160;50.504;3.666;2022-11-22T07:25:51;5.85;90.90
76345;DHT22;65160;50.504;3.666;2022-11-22T07:28:16;5.83;91.10
76345;DHT22;65160;50.504;3.666;2022-11-22T07:30:41;5.82;91.25
76345;DHT22;65160;50.504;3.666;2022-11-22T07:33:07;5.83;91.14
76345;DHT22;65160;50.504;3.666;2022-11-22T07:35:33;5.89;91.32
76345;DHT22;65160;50.504;3.666;2022-11-22T07:37:59;5.83;91.40
76345;DHT22;65160;50.504;3.666;2022-11-22T07:40:25;5.92;91.42
76345;DHT22;65160;50.504;3.666;2022-11-22T07:42:50;5.94;91.12
76345;DHT22;65160;50.504;3.666;2022-11-22T07:45:16;5.97;91.20
76345;DHT22;65160;50.504;3.666;2022-11-22T07:47:41;5.99;90.94
76345;DHT22;65160;50.504;3.666;2022-11-22T07:50:07;5.97;91.25
76345;DHT22;65160;50.504;3.666;2022-11-22T07:52:33;5.99;91.66
76345;DHT22;65160;50.504;3.666;2022-11-22T07:54:58;5.97;91.66
76345;DHT22;65160;50.504;3.666;2022-11-22T07:57:23;6.00;91.86
76345;DHT22;65160;50.504;3.666;2022-11-22T07:59:49;5.99;92.00
76345;DHT22;65160;50.504;3.666;2022-11-22T08:02:14;5.97;92.33
76345;DHT22;65160;50.504;3.666;2022-11-22T08:04:40;5.97;92.67
76345;DHT22;65160;50.504;3.666;2022-11-22T08:07:05;5.94;92.99
76345;DHT22;65160;50.504;3.666;2022-11-22T08:09:31;5.97;93.20
76345;DHT22;65160;50.504;3.666;2022-11-22T08:11:56;5.96;93.58
76345;DHT22;65160;50.504;3.666;2022-11-22T08:14:22;5.99;93.42
76345;DHT22;65160;50.504;3.666;2022-11-22T08:16:48;5.99;93.83
76345;DHT22;65160;50.504;3.666;2022-11-22T08:19:14;5.96;93.88
76345;DHT22;65160;50.504;3.666;2022-11-22T08:21:46;5.99;94.01
76345;DHT22;65160;50.504;3.666;2022-11-22T08:24:12;5.99;93.80
76345;DHT22;65160;50.504;3.666;2022-11-22T08:26:37;6.02;93.87
76345;DHT22;65160;50.504;3.666;2022-11-22T08:29:04;6.07;94.10
76345;DHT22;65160;50.504;3.666;2022-11-22T08:31:30;6.14;93.85
76345;DHT22;65160;50.504;3.666;2022-11-22T08:33:55;6.13;93.38
76345;DHT22;65160;50.504;3.666;2022-11-22T08:36:21;6.16;93.54
76345;DHT22;65160;50.504;3.666;2022-11-22T08:38:46;6.20;93.31
76345;DHT22;65160;50.504;3.666;2022-11-22T08:41:12;6.27;92.88
76345;DHT22;65160;50.504;3.666;2022-11-22T08:43:38;6.35;92.76
76345;DHT22;65160;50.504;3.666;2022-11-22T08:46:04;6.46;92.21
76345;DHT22;65160;50.504;3.666;2022-11-22T08:48:32;6.46;92.12
76345;DHT22;65160;50.504;3.666;2022-11-22T08:51:00;6.48;91.79
76345;DHT22;65160;50.504;3.666;2022-11-22T08:53:26;6.51;91.80
76345;DHT22;65160;50.504;3.666;2022-11-22T08:55:52;6.58;91.94
76345;DHT22;65160;50.504;3.666;2022-11-22T08:58:19;6.64;91.62
76345;DHT22;65160;50.504;3.666;2022-11-22T09:00:44;6.59;91.00
76345;DHT22;65160;50.504;3.666;2022-11-22T09:03:10;6.66;91.30
76345;DHT22;65160;50.504;3.666;2022-11-22T09:05:36;6.71;91.32
76345;DHT22;65160;50.504;3.666;2022-11-22T09:08:02;6.75;90.62
76345;DHT22;65160;50.504;3.666;2022-11-22T09:10:27;6.78;90.63
76345;DHT22;65160;50.504;3.666;2022-11-22T09:12:53;6.82;90.13
76345;DHT22;65160;50.504;3.666;2022-11-22T09:15:19;6.83;90.70
76345;DHT22;65160;50.504;3.666;2022-11-22T09:17:44;6.85;90.48
76345;DHT22;65160;50.504;3.666;2022-11-22T09:20:10;6.85;90.47
76345;DHT22;65160;50.504;3.666;2022-11-22T09:22:36;6.89;90.37
76345;DHT22;65160;50.504;3.666;2022-11-22T09:25:03;6.87;89.67
76345;DHT22;65160;50.504;3.666;2022-11-22T09:27:31;6.85;89.65
76345;DHT22;65160;50.504;3.666;2022-11-22T09:29:56;6.87;90.08
76345;DHT22;65160;50.504;3.666;2022-11-22T09:32:21;6.86;89.80
76345;DHT22;65160;50.504;3.666;2022-11-22T09:34:47;6.85;89.84
76345;DHT22;65160;50.504;3.666;2022-11-22T09:37:12;6.82;89.86
76345;DHT22;65160;50.504;3.666;2022-11-22T09:39:43;6.83;90.08
76345;DHT22;65160;50.504;3.666;2022-11-22T09:48:00;6.72;91.60
76345;DHT22;65160;50.504;3.666;2022-11-22T09:50:33;6.65;92.32
76345;DHT22;65160;50.504;3.666;2022-11-22T09:53:09;6.65;92.50
76345;DHT22;65160;50.504;3.666;2022-11-22T09:55:39;6.65;93.18
76345;DHT22;65160;50.504;3.666;2022-11-22T10:00:49;6.53;94.23
76345;DHT22;65160;50.504;3.666;2022-11-22T10:03:53;6.52;94.77
76345;DHT22;65160;50.504;3.666;2022-11-22T10:06:24;6.56;94.80
76345;DHT22;65160;50.504;3.666;2022-11-22T10:11:48;6.73;94.68
76345;DHT22;65160;50.504;3.666;2022-11-22T10:16:56;6.79;94.44
76345;DHT22;65160;50.504;3.666;2022-11-22T10:19:34;6.85;94.28
76345;DHT22;65160;50.504;3.666;2022-11-22T10:22:09;6.92;94.21
76345;DHT22;65160;50.504;3.666;2022-11-22T10:24:36;7.01;93.85
76345;DHT22;65160;50.504;3.666;2022-11-22T10:27:01;7.08;93.81
76345;DHT22;65160;50.504;3.666;2022-11-22T10:29:33;7.18;93.49
76345;DHT22;65160;50.504;3.666;2022-11-22T10:35:10;7.35;92.29
76345;DHT22;65160;50.504;3.666;2022-11-22T10:40:37;7.50;91.29
76345;DHT22;65160;50.504;3.666;2022-11-22T10:45:55;7.58;91.44
76345;DHT22;65160;50.504;3.666;2022-11-22T10:48:50;7.69;91.73
76345;DHT22;65160;50.504;3.666;2022-11-22T10:51:38;7.72;91.30
76345;DHT22;65160;50.504;3.666;2022-11-22T10:54:16;7.72;91.08
76345;DHT22;65160;50.504;3.666;2022-11-22T10:56:59;7.75;90.89
76345;DHT22;65160;50.504;3.666;2022-11-22T11:04:34;7.75;89.19
76345;DHT22;65160;50.504;3.666;2022-11-22T11:07:02;7.79;89.47
76345;DHT22;65160;50.504;3.666;2022-11-22T11:09:37;7.79;89.49
76345;DHT22;65160;50.504;3.666;2022-11-22T11:12:12;7.86;89.66
76345;DHT22;65160;50.504;3.666;2022-11-22T11:14:39;7.87;89.71
76345;DHT22;65160;50.504;3.666;2022-11-22T11:17:05;7.93;89.38
76345;DHT22;65160;50.504;3.666;2022-11-22T11:19:40;8.00;89.54
76345;DHT22;65160;50.504;3.666;2022-11-22T11:24:35;8.13;89.27
76345;DHT22;65160;50.504;3.666;2022-11-22T11:27:02;8.11;89.06
76345;DHT22;65160;50.504;3.666;2022-11-22T11:32:13;8.14;88.86
76345;DHT22;65160;50.504;3.666;2022-11-22T11:34:56;8.04;89.25
76345;DHT22;65160;50.504;3.666;2022-11-22T11:37:33;7.97;89.18
76345;DHT22;65160;50.504;3.666;2022-11-22T11:39:59;8.00;89.45
76345;DHT22;65160;50.504;3.666;2022-11-22T11:42:26;8.01;89.83
76345;DHT22;65160;50.504;3.666;2022-11-22T11:44:52;8.04;89.81
76345;DHT22;65160;50.504;3.666;2022-11-22T11:47:30;7.97;89.97
76345;DHT22;65160;50.504;3.666;2022-11-22T11:49:56;7.94;90.14
76345;DHT22;65160;50.504;3.666;2022-11-22T11:52:22;7.96;90.60
76345;DHT22;65160;50.504;3.666;2022-11-22T11:54:54;8.01;90.62
76345;DHT22;65160;50.504;3.666;2022-11-22T11:57:49;8.06;90.87
76345;DHT22;65160;50.504;3.666;2022-11-22T12:00:41;8.00;90.80
76345;DHT22;65160;50.504;3.666;2022-11-22T12:03:07;7.99;90.94
76345;DHT22;65160;50.504;3.666;2022-11-22T12:05:35;8.06;91.00
76345;DHT22;65160;50.504;3.666;2022-11-22T12:08:01;8.10;90.79
76345;DHT22;65160;50.504;3.666;2022-11-22T12:15:45;8.21;90.91
76345;DHT22;65160;50.504;3.666;2022-11-22T12:21:30;8.31;90.37
76345;DHT22;65160;50.504;3.666;2022-11-22T12:26:25;8.33;90.51
76345;DHT22;65160;50.504;3.666;2022-11-22T12:28:52;8.33;90.04
76345;DHT22;65160;50.504;3.666;2022-11-22T12:31:31;8.38;90.12
76345;DHT22;65160;50.504;3.666;2022-11-22T12:37:04;8.66;89.17
76345;DHT22;65160;50.504;3.666;2022-11-22T12:39:34;8.77;88.75
76345;DHT22;65160;50.504;3.666;2022-11-22T12:42:21;9.09;88.56
76345;DHT22;65160;50.504;3.666;2022-11-22T12:44:53;9.20;87.31
76345;DHT22;65160;50.504;3.666;2022-11-22T12:47:24;9.13;87.60
76345;DHT22;65160;50.504;3.666;2022-11-22T12:50:14;9.14;87.06
76345;DHT22;65160;50.504;3.666;2022-11-22T12:52:44;9.17;87.45
76345;DHT22;65160;50.504;3.666;2022-11-22T12:55:28;9.11;87.33
76345;DHT22;65160;50.504;3.666;2022-11-22T13:00:34;9.20;87.01
76345;DHT22;65160;50.504;3.666;2022-11-22T13:03:09;9.19;86.88
76345;DHT22;65160;50.504;3.666;2022-11-22T13:05:55;9.23;87.19
76345;DHT22;65160;50.504;3.666;2022-11-22T13:08:53;9.31;86.98
76345;DHT22;65160;50.504;3.666;2022-11-22T13:11:26;9.34;86.64
76345;DHT22;65160;50.504;3.666;2022-11-22T13:13:59;9.35;86.80
76345;DHT22;65160;50.504;3.666;2022-11-22T13:16:27;9.32;86.75
76345;DHT22;65160;50.504;3.666;2022-11-22T13:18:58;9.27;87.12
76345;DHT22;65160;50.504;3.666;2022-11-22T13:27:26;9.14;87.98
76345;DHT22;65160;50.504;3.666;2022-11-22T13:29:55;9.13;87.78
76345;DHT22;65160;50.504;3.666;2022-11-22T13:32:23;9.07;88.15
76345;DHT22;65160;50.504;3.666;2022-11-22T13:37:35;8.99;88.59
76345;DHT22;65160;50.504;3.666;2022-11-22T13:42:41;8.55;91.51
76345;DHT22;65160;50.504;3.666;2022-11-22T13:45:22;8.42;92.77
76345;DHT22;65160;50.504;3.666;2022-11-22T13:47:48;8.28;93.09
76345;DHT22;65160;50.504;3.666;2022-11-22T13:55:45;8.09;94.16
76345;DHT22;65160;50.504;3.666;2022-11-22T14:00:48;8.04;94.67
76345;DHT22;65160;50.504;3.666;2022-11-22T14:03:26;7.97;95.04
76345;DHT22;65160;50.504;3.666;2022-11-22T14:05:56;7.96;95.36
76345;DHT22;65160;50.504;3.666;2022-11-22T14:08:42;7.97;95.07
76345;DHT22;65160;50.504;3.666;2022-11-22T14:11:56;7.94;95.43
76345;DHT22;65160;50.504;3.666;2022-11-22T14:17:35;7.90;95.10
76345;DHT22;65160;50.504;3.666;2022-11-22T14:20:39;7.90;95.93
76345;DHT22;65160;50.504;3.666;2022-11-22T14:32:19;7.94;96.28
76345;DHT22;65160;50.504;3.666;2022-11-22T14:45:15;7.96;96.28
76345;DHT22;65160;50.504;3.666;2022-11-22T14:47:52;7.99;96.27
76345;DHT22;65160;50.504;3.666;2022-11-22T14:50:39;8.06;95.80
76345;DHT22;65160;50.504;3.666;2022-11-22T14:56:14;8.03;95.93
76345;DHT22;65160;50.504;3.666;2022-11-22T14:59:14;8.03;95.69
76345;DHT22;65160;50.504;3.666;2022-11-22T15:15:36;8.09;96.45
76345;DHT22;65160;50.504;3.666;2022-11-22T15:18:22;8.11;96.23
76345;DHT22;65160;50.504;3.666;2022-11-22T15:20:48;8.16;96.16
76345;DHT22;65160;50.504;3.666;2022-11-22T15:23:20;8.18;96.23
76345;DHT22;65160;50.504;3.666;2022-11-22T15:25:49;8.17;96.52
76345;DHT22;65160;50.504;3.666;2022-11-22T15:28:20;8.10;96.61
76345;DHT22;65160;50.504;3.666;2022-11-22T15:30:47;8.16;96.85
76345;DHT22;65160;50.504;3.666;2022-11-22T15:38:32;8.26;96.20
76345;DHT22;65160;50.504;3.666;2022-11-22T15:41:03;8.30;95.70
76345;DHT22;65160;50.504;3.666;2022-11-22T15:43:28;8.37;95.57
76345;DHT22;65160;50.504;3.666;2022-11-22T15:45:54;8.35;95.39
76345;DHT22;65160;50.504;3.666;2022-11-22T15:48:28;8.38;95.43
76345;DHT22;65160;50.504;3.666;2022-11-22T15:53:59;8.52;94.07
76345;DHT22;65160;50.504;3.666;2022-11-22T15:56:36;8.55;93.77
76345;DHT22;65160;50.504;3.666;2022-11-22T16:01:49;8.69;92.26
76345;DHT22;65160;50.504;3.666;2022-11-22T16:04:22;8.73;92.00
76345;DHT22;65160;50.504;3.666;2022-11-22T16:06:50;8.82;91.19
76345;DHT22;65160;50.504;3.666;2022-11-22T16:11:55;8.97;89.25
76345;DHT22;65160;50.504;3.666;2022-11-22T16:14:42;8.94;89.49
76345;DHT22;65160;50.504;3.666;2022-11-22T16:19:48;8.99;88.60
76345;DHT22;65160;50.504;3.666;2022-11-22T16:22:30;9.03;88.28
76345;DHT22;65160;50.504;3.666;2022-11-22T16:25:21;9.09;87.93
76345;DHT22;65160;50.504;3.666;2022-11-22T16:27:52;9.04;87.55
76345;DHT22;65160;50.504;3.666;2022-11-22T16:30:18;9.04;87.51
76345;DHT22;65160;50.504;3.666;2022-11-22T16:32:43;9.02;87.89
76345;DHT22;65160;50.504;3.666;2022-11-22T16:35:15;8.99;88.27
76345;DHT22;65160;50.504;3.666;2022-11-22T16:37:42;9.06;87.63
76345;DHT22;65160;50.504;3.666;2022-11-22T16:40:10;9.11;87.06
76345;DHT22;65160;50.504;3.666;2022-11-22T16:42:41;9.14;86.75
76345;DHT22;65160;50.504;3.666;2022-11-22T16:45:17;9.13;87.10
76345;DHT22;65160;50.504;3.666;2022-11-22T16:47:44;9.19;86.59
76345;DHT22;65160;50.504;3.666;2022-11-22T16:50:14;9.17;86.55
76345;DHT22;65160;50.504;3.666;2022-11-22T16:52:40;9.13;87.03
76345;DHT22;65160;50.504;3.666;2022-11-22T16:55:24;9.14;86.95
76345;DHT22;65160;50.504;3.666;2022-11-22T16:57:49;9.14;86.87
76345;DHT22;65160;50.504;3.666;2022-11-22T17:00:15;9.00;87.81
76345;DHT22;65160;50.504;3.666;2022-11-22T17:02:41;8.92;88.85
76345;DHT22;65160;50.504;3.666;2022-11-22T17:05:13;8.89;88.62
76345;DHT22;65160;50.504;3.666;2022-11-22T17:07:40;8.86;88.33
76345;DHT22;65160;50.504;3.666;2022-11-22T17:10:06;8.97;87.18
76345;DHT22;65160;50.504;3.666;2022-11-22T17:12:31;9.09;87.41
76345;DHT22;65160;50.504;3.666;2022-11-22T17:14:57;9.11;86.61
76345;DHT22;65160;50.504;3.666;2022-11-22T17:17:22;9.13;87.08
76345;DHT22;65160;50.504;3.666;2022-11-22T17:19:48;9.19;86.24
76345;DHT22;65160;50.504;3.666;2022-11-22T17:22:16;9.20;85.89
76345;DHT22;65160;50.504;3.666;2022-11-22T17:24:42;9.23;86.08
76345;DHT22;65160;50.504;3.666;2022-11-22T17:27:11;9.19;87.12
76345;DHT22;65160;50.504;3.666;2022-11-22T17:29:38;9.00;87.77
76345;DHT22;65160;50.504;3.666;2022-11-22T17:32:04;8.89;89.09
76345;DHT22;65160;50.504;3.666;2022-11-22T17:34:29;8.84;89.49
76345;DHT22;65160;50.504;3.666;2022-11-22T17:36:55;8.75;90.57
76345;DHT22;65160;50.504;3.666;2022-11-22T17:39:20;8.73;90.38
76345;DHT22;65160;50.504;3.666;2022-11-22T17:41:48;8.66;91.00
76345;DHT22;65160;50.504;3.666;2022-11-22T17:44:15;8.61;91.29
76345;DHT22;65160;50.504;3.666;2022-11-22T17:46:41;8.61;91.13
76345;DHT22;65160;50.504;3.666;2022-11-22T17:49:08;8.52;92.10
76345;DHT22;65160;50.504;3.666;2022-11-22T17:51:36;8.51;91.66
76345;DHT22;65160;50.504;3.666;2022-11-22T17:54:02;8.58;91.36
76345;DHT22;65160;50.504;3.666;2022-11-22T17:56:29;8.64;90.95
76345;DHT22;65160;50.504;3.666;2022-11-22T17:58:58;8.66;90.65
76345;DHT22;65160;50.504;3.666;2022-11-22T18:01:23;8.73;90.09
76345;DHT22;65160;50.504;3.666;2022-11-22T18:03:48;8.77;90.02
76345;DHT22;65160;50.504;3.666;2022-11-22T18:06:15;8.80;89.65
76345;DHT22;65160;50.504;3.666;2022-11-22T18:08:41;8.89;89.12